createdAt,value
2023-02-28T00:01:38.465Z,-1.18
2023-02-28T00:04:05.617Z,-1.23
2023-02-28T00:06:33.835Z,-1.30
2023-02-28T00:09:01.189Z,-1.31
2023-02-28T00:11:28.975Z,-1.37
2023-02-28T00:13:56.242Z,-1.41
2023-02-28T00:16:23.980Z,-1.42
2023-02-28T00:18:52.650Z,-1.32
2023-02-28T00:21:21.136Z,-1.34
2023-02-28T00:23:48.777Z,-1.55
2023-02-28T00:26:20.015Z,-1.71
2023-02-28T00:28:49.741Z,-1.83
2023-02-28T00:31:24.459Z,-1.94
2023-02-28T00:33:53.073Z,-1.95
2023-02-28T00:36:33.700Z,-1.98
2023-02-28T00:39:02.152Z,-2.04
2023-02-28T00:41:29.820Z,-2.07
2023-02-28T00:43:57.436Z,-2.07
2023-02-28T00:46:25.076Z,-1.65
2023-02-28T00:48:52.472Z,-1.87
2023-02-28T00:51:20.865Z,-1.90
2023-02-28T00:53:48.417Z,-2.00
2023-02-28T00:56:15.754Z,-1.98
2023-02-28T00:58:43.526Z,-1.65
2023-02-28T01:01:10.781Z,-1.60
2023-02-28T01:03:38.015Z,-1.54
2023-02-28T01:06:05.664Z,-1.84
2023-02-28T01:08:33.213Z,-2.09
2023-02-28T01:11:12.114Z,-2.42
2023-02-28T01:13:41.885Z,-2.60
2023-02-28T01:16:10.508Z,-2.76
2023-02-28T01:18:38.858Z,-2.88
2023-02-28T01:21:07.433Z,-2.89
2023-02-28T01:23:36.145Z,-2.94
2023-02-28T01:26:21.984Z,-2.93
2023-02-28T01:28:50.800Z,-2.93
2023-02-28T01:31:21.647Z,-2.48
2023-02-28T01:33:50.047Z,-2.58
2023-02-28T01:36:26.798Z,-2.96
2023-02-28T01:38:54.296Z,-2.81
2023-02-28T01:41:33.319Z,-2.54
2023-02-28T01:44:26.403Z,-2.74
2023-02-28T01:46:53.720Z,-2.87
2023-02-28T01:49:21.237Z,-3.26
2023-02-28T01:51:55.898Z,-3.30
2023-02-28T01:54:30.831Z,-3.26
2023-02-28T01:57:14.539Z,-3.34
2023-02-28T02:02:58.058Z,-3.25
2023-02-28T02:05:29.796Z,-3.22
2023-02-28T02:08:03.993Z,-2.92
2023-02-28T02:10:56.608Z,-2.97
2023-02-28T02:14:01.709Z,-2.97
2023-02-28T02:16:57.593Z,-3.05
2023-02-28T02:20:28.815Z,-3.00
2023-02-28T02:23:23.145Z,-3.12
2023-02-28T02:25:58.006Z,-3.56
2023-02-28T02:28:51.262Z,-3.84
2023-02-28T02:31:55.239Z,-4.03
2023-02-28T02:34:27.794Z,-4.07
2023-02-28T02:37:07.089Z,-4.11
2023-02-28T02:40:00.098Z,-4.21
2023-02-28T02:42:59.180Z,-4.25
2023-02-28T02:45:37.096Z,-4.31
2023-02-28T02:48:10.499Z,-4.37
2023-02-28T02:50:55.527Z,-4.42
2023-02-28T02:53:28.474Z,-4.48
2023-02-28T02:55:57.397Z,-4.12
2023-02-28T02:58:29.278Z,-3.67
2023-02-28T03:01:01.469Z,-3.61
2023-02-28T03:03:31.182Z,-3.96
2023-02-28T03:06:02.853Z,-4.17
2023-02-28T03:08:37.497Z,-4.08
2023-02-28T03:11:13.617Z,-4.07
2023-02-28T03:14:04.624Z,-4.13
2023-02-28T03:17:02.927Z,-4.28
2023-02-28T03:19:50.183Z,-4.46
2023-02-28T03:22:41.331Z,-4.24
2023-02-28T03:25:46.951Z,-3.84
2023-02-28T03:28:43.809Z,-4.20
2023-02-28T03:31:18.242Z,-4.53
2023-02-28T03:33:59.062Z,-4.43
2023-02-28T03:36:33.835Z,-4.41
2023-02-28T03:39:06.864Z,-4.48
2023-02-28T03:41:43.334Z,-4.48
2023-02-28T03:44:16.985Z,-4.54
2023-02-28T03:46:54.294Z,-4.68
2023-02-28T03:49:30.076Z,-4.68
2023-02-28T03:52:00.694Z,-4.71
2023-02-28T03:54:37.646Z,-4.61
2023-02-28T03:57:20.401Z,-4.59
2023-02-28T04:00:15.679Z,-4.41
2023-02-28T04:02:42.944Z,-4.27
2023-02-28T04:05:10.551Z,-4.43
2023-02-28T04:07:39.122Z,-4.65
2023-02-28T04:10:06.901Z,-4.81
2023-02-28T04:12:34.373Z,-4.83
2023-02-28T04:15:01.804Z,-4.84
2023-02-28T04:17:29.368Z,-4.84
2023-02-28T04:19:58.793Z,-4.83
2023-02-28T04:22:29.322Z,-4.88
2023-02-28T04:24:56.801Z,-4.96
2023-02-28T04:27:24.250Z,-5.00
2023-02-28T04:29:51.667Z,-4.55
2023-02-28T04:32:19.267Z,-4.56
2023-02-28T04:34:46.633Z,-4.82
2023-02-28T04:37:14.489Z,-4.85
2023-02-28T04:39:43.133Z,-5.03
2023-02-28T04:42:10.836Z,-5.13
2023-02-28T04:44:37.986Z,-5.20
2023-02-28T04:47:05.373Z,-5.14
2023-02-28T04:49:33.799Z,-4.93
2023-02-28T04:52:01.390Z,-4.72
2023-02-28T04:54:29.655Z,-4.78
2023-02-28T04:56:58.748Z,-4.63
2023-02-28T04:59:26.316Z,-4.93
2023-02-28T05:01:53.457Z,-5.16
2023-02-28T05:04:21.750Z,-5.20
2023-02-28T05:06:49.173Z,-5.28
2023-02-28T05:09:16.629Z,-5.32
2023-02-28T05:11:46.092Z,-5.30
2023-02-28T05:14:15.543Z,-5.27
2023-02-28T05:16:45.230Z,-4.76
2023-02-28T05:19:13.770Z,-4.96
2023-02-28T05:21:52.412Z,-5.05
2023-02-28T05:24:26.115Z,-4.85
2023-02-28T05:26:54.992Z,-4.77
2023-02-28T05:29:23.387Z,-4.86
2023-02-28T05:31:51.640Z,-4.72
2023-02-28T05:34:18.880Z,-4.67
2023-02-28T05:36:47.399Z,-4.76
2023-02-28T05:39:21.021Z,-4.79
2023-02-28T05:41:50.397Z,-4.77
2023-02-28T05:44:17.873Z,-4.95
2023-02-28T05:46:45.378Z,-5.10
2023-02-28T05:49:12.886Z,-5.20
2023-02-28T05:51:41.335Z,-5.13
2023-02-28T05:54:09.126Z,-4.97
2023-02-28T05:56:40.326Z,-4.89
2023-02-28T05:59:11.689Z,-5.00
2023-02-28T06:01:41.566Z,-4.91
2023-02-28T06:04:19.297Z,-4.93
2023-02-28T06:06:55.893Z,-4.77
2023-02-28T06:09:26.292Z,-4.72
2023-02-28T06:11:53.878Z,-4.65
2023-02-28T06:14:21.928Z,-4.62
2023-02-28T06:16:50.321Z,-4.63
2023-02-28T06:19:17.915Z,-4.77
2023-02-28T06:21:53.611Z,-4.57
2023-02-28T06:24:26.480Z,-4.61
2023-02-28T06:26:53.972Z,-4.69
2023-02-28T06:29:21.476Z,-4.61
2023-02-28T06:31:49.178Z,-4.57
2023-02-28T06:34:17.886Z,-4.64
2023-02-28T06:36:46.376Z,-4.65
2023-02-28T06:39:13.759Z,-4.54
2023-02-28T06:41:54.230Z,-4.31
2023-02-28T06:44:23.027Z,-4.10
2023-02-28T06:46:51.866Z,-4.06
2023-02-28T06:49:20.555Z,-3.97
2023-02-28T06:51:48.963Z,-3.90
2023-02-28T06:54:17.405Z,-3.80
2023-02-28T06:56:44.909Z,-3.64
2023-02-28T06:59:12.373Z,-3.47
2023-02-28T07:01:40.321Z,-3.33
2023-02-28T07:04:08.133Z,-3.29
2023-02-28T07:06:35.400Z,-3.22
2023-02-28T07:09:02.810Z,-3.12
2023-02-28T07:11:31.594Z,-2.90
2023-02-28T07:13:59.414Z,-2.78
2023-02-28T07:16:26.922Z,-2.63
2023-02-28T07:18:55.094Z,-2.45
2023-02-28T07:21:23.422Z,-2.28
2023-02-28T07:23:52.630Z,-2.11
2023-02-28T07:26:21.195Z,-1.91
2023-02-28T07:28:49.968Z,-1.77
2023-02-28T07:31:19.479Z,-1.56
2023-02-28T07:33:47.162Z,-1.51
2023-02-28T07:36:16.798Z,-1.42
2023-02-28T07:38:48.269Z,-1.20
2023-02-28T07:41:19.325Z,-1.03
2023-02-28T07:43:47.038Z,-0.90
2023-02-28T07:46:17.614Z,-0.79
2023-02-28T07:48:46.198Z,-0.72
2023-02-28T07:51:13.747Z,-0.56
2023-02-28T07:53:41.209Z,-0.40
2023-02-28T07:56:14.312Z,-0.21
2023-02-28T07:58:41.605Z,-0.15
2023-02-28T08:01:12.042Z,0.01
2023-02-28T08:03:40.214Z,0.18
2023-02-28T08:06:09.923Z,0.32
2023-02-28T08:08:37.066Z,0.37
2023-02-28T08:11:06.725Z,0.55
2023-02-28T08:13:34.169Z,0.65
2023-02-28T08:16:03.621Z,0.78
2023-02-28T08:18:31.251Z,0.92
2023-02-28T08:20:58.779Z,1.04
2023-02-28T08:23:26.909Z,1.10
2023-02-28T08:25:58.338Z,1.20
2023-02-28T08:28:27.291Z,1.30
2023-02-28T08:30:55.819Z,1.38
2023-02-28T08:33:24.801Z,1.60
2023-02-28T08:35:58.242Z,1.71
2023-02-28T08:38:25.824Z,1.70
2023-02-28T08:41:00.183Z,1.88
2023-02-28T08:43:27.894Z,1.94
2023-02-28T08:46:00.613Z,2.12
2023-02-28T08:48:29.827Z,2.26
2023-02-28T08:51:07.553Z,2.36
2023-02-28T08:53:35.959Z,2.42
2023-02-28T08:56:17.876Z,2.58
2023-02-28T08:58:49.063Z,2.59
2023-02-28T09:01:19.680Z,2.69
2023-02-28T09:03:48.070Z,2.79
2023-02-28T09:06:18.022Z,2.85
2023-02-28T09:08:47.530Z,2.98
2023-02-28T09:11:17.181Z,3.11
2023-02-28T09:13:44.678Z,3.27
2023-02-28T09:16:14.817Z,3.47
2023-02-28T09:18:44.787Z,3.81
2023-02-28T09:21:15.490Z,4.51
2023-02-28T09:23:46.983Z,5.88
2023-02-28T09:26:20.662Z,7.60
2023-02-28T09:28:48.262Z,8.94
2023-02-28T09:31:24.394Z,7.85
2023-02-28T09:33:53.685Z,8.21
2023-02-28T09:36:41.801Z,9.49
2023-02-28T09:39:11.576Z,10.42
2023-02-28T09:41:48.679Z,8.80
2023-02-28T09:44:22.334Z,8.60
2023-02-28T09:46:51.164Z,9.05
2023-02-28T09:49:26.704Z,9.88
2023-02-28T09:52:18.421Z,10.19
2023-02-28T09:54:45.580Z,10.65
2023-02-28T09:57:20.621Z,11.03
2023-02-28T10:00:03.981Z,11.51
2023-02-28T10:03:04.884Z,11.44
2023-02-28T10:05:39.966Z,11.92
2023-02-28T10:08:17.934Z,12.61
2023-02-28T10:11:03.061Z,13.12
2023-02-28T10:13:53.858Z,13.58
2023-02-28T10:16:31.589Z,14.01
2023-02-28T10:19:34.309Z,14.52
2023-02-28T10:22:23.807Z,14.57
2023-02-28T10:24:53.796Z,14.44
2023-02-28T10:27:32.766Z,14.64
2023-02-28T10:30:03.308Z,14.39
2023-02-28T10:32:46.674Z,14.45
2023-02-28T10:35:18.817Z,14.59
2023-02-28T10:37:50.118Z,15.08
2023-02-28T10:40:23.302Z,14.82
2023-02-28T10:43:28.042Z,15.34
2023-02-28T10:46:07.195Z,15.73
2023-02-28T10:48:47.265Z,15.77
2023-02-28T10:51:17.262Z,15.83
2023-02-28T10:53:59.583Z,15.78
2023-02-28T10:56:28.947Z,16.28
2023-02-28T10:59:03.444Z,16.35
2023-02-28T11:01:46.462Z,16.52
2023-02-28T11:04:39.195Z,16.75
2023-02-28T11:07:22.963Z,16.69
2023-02-28T11:09:56.774Z,16.69
2023-02-28T11:12:52.154Z,17.01
2023-02-28T11:15:28.121Z,16.26
2023-02-28T11:18:14.883Z,16.34
2023-02-28T11:20:42.452Z,16.10
2023-02-28T11:23:15.064Z,16.62
2023-02-28T11:25:52.373Z,16.21
2023-02-28T11:28:35.302Z,16.10
2023-02-28T11:31:05.084Z,16.25
2023-02-28T11:33:42.923Z,15.50
2023-02-28T11:36:32.173Z,14.30
2023-02-28T11:39:10.307Z,15.28
2023-02-28T11:42:22.090Z,15.83
2023-02-28T11:45:26.676Z,15.61
2023-02-28T11:48:02.157Z,15.57
2023-02-28T11:51:03.043Z,14.27
2023-02-28T11:53:49.202Z,14.14
2023-02-28T11:56:32.717Z,14.06
2023-02-28T11:59:03.091Z,13.76
2023-02-28T12:01:49.105Z,13.40
2023-02-28T12:04:29.574Z,13.15
2023-02-28T12:07:13.002Z,12.55
2023-02-28T12:10:35.904Z,11.85
2023-02-28T12:13:29.284Z,11.08
2023-02-28T12:16:19.719Z,11.02
2023-02-28T12:19:00.355Z,10.69
2023-02-28T12:21:47.502Z,11.10
2023-02-28T12:24:31.799Z,11.97
2023-02-28T12:27:03.660Z,12.32
2023-02-28T12:29:55.539Z,12.46
2023-02-28T12:32:35.152Z,12.38
2023-02-28T12:35:14.748Z,12.35
2023-02-28T12:37:56.452Z,12.64
2023-02-28T12:40:28.634Z,12.61
2023-02-28T12:43:04.933Z,13.16
2023-02-28T12:45:50.034Z,13.35
2023-02-28T12:48:27.410Z,13.99
2023-02-28T12:50:57.614Z,14.30
2023-02-28T12:53:32.479Z,14.64
2023-02-28T12:56:29.395Z,14.93
2023-02-28T12:59:06.382Z,14.75
2023-02-28T13:01:57.879Z,15.14
2023-02-28T13:04:56.983Z,15.78
2023-02-28T13:07:47.809Z,16.00
2023-02-28T13:10:17.889Z,16.10
2023-02-28T13:12:56.106Z,15.80
2023-02-28T13:15:29.341Z,15.37
2023-02-28T13:17:59.387Z,14.24
2023-02-28T13:20:31.066Z,14.68
2023-02-28T13:22:59.261Z,15.35
2023-02-28T13:25:26.654Z,15.58
2023-02-28T13:27:58.226Z,15.83
2023-02-28T13:30:51.812Z,16.15
2023-02-28T13:33:30.804Z,16.19
2023-02-28T13:36:19.210Z,16.71
2023-02-28T13:38:56.807Z,16.86
2023-02-28T13:41:45.217Z,16.75
2023-02-28T13:44:15.290Z,16.77
2023-02-28T13:46:52.004Z,16.95
2023-02-28T13:49:29.274Z,17.11
2023-02-28T13:52:21.056Z,17.38
2023-02-28T13:55:26.643Z,16.55
2023-02-28T13:58:41.158Z,16.87
2023-02-28T14:01:17.747Z,17.21
2023-02-28T14:04:07.025Z,15.81
2023-02-28T14:06:36.780Z,15.56
2023-02-28T14:09:13.500Z,14.78
2023-02-28T14:11:43.588Z,15.06
2023-02-28T14:14:50.160Z,15.37
2023-02-28T14:17:18.789Z,15.80
2023-02-28T14:19:51.094Z,16.29
2023-02-28T14:22:39.732Z,16.25
2023-02-28T14:25:19.600Z,16.23
2023-02-28T14:27:55.226Z,15.98
2023-02-28T14:30:28.520Z,16.23
2023-02-28T14:33:27.783Z,16.48
2023-02-28T14:36:13.960Z,16.05
2023-02-28T14:38:55.013Z,15.81
2023-02-28T14:41:25.597Z,15.68
2023-02-28T14:43:59.657Z,15.46
2023-02-28T14:46:42.004Z,15.74
2023-02-28T14:49:19.348Z,15.76
2023-02-28T14:51:48.797Z,15.14
2023-02-28T14:54:25.186Z,15.24
2023-02-28T14:56:52.924Z,15.86
2023-02-28T14:59:27.947Z,15.46
2023-02-28T15:02:17.717Z,15.24
2023-02-28T15:04:57.517Z,14.98
2023-02-28T15:07:37.951Z,15.13
2023-02-28T15:10:12.246Z,15.25
2023-02-28T15:12:41.529Z,15.24
2023-02-28T15:15:31.924Z,15.25
2023-02-28T15:18:20.117Z,14.84
2023-02-28T15:20:48.167Z,14.86
2023-02-28T15:23:17.173Z,14.33
2023-02-28T15:25:45.129Z,14.61
2023-02-28T15:28:19.757Z,14.14
2023-02-28T15:31:05.048Z,14.34
2023-02-28T15:33:34.737Z,14.11
2023-02-28T15:36:06.110Z,13.22
2023-02-28T15:38:37.361Z,13.46
2023-02-28T15:41:09.362Z,13.36
2023-02-28T15:43:39.409Z,13.61
2023-02-28T15:46:10.594Z,13.35
2023-02-28T15:48:44.012Z,13.36
2023-02-28T15:51:23.902Z,13.25
2023-02-28T15:54:01.482Z,12.93
2023-02-28T15:56:31.816Z,12.16
2023-02-28T15:59:06.366Z,11.43
2023-02-28T16:01:39.154Z,10.50
2023-02-28T16:04:21.086Z,9.80
2023-02-28T16:07:05.788Z,9.34
2023-02-28T16:09:35.261Z,8.86
2023-02-28T16:12:03.918Z,8.28
2023-02-28T16:14:32.348Z,7.84
2023-02-28T16:17:07.170Z,7.27
2023-02-28T16:19:35.896Z,7.10
2023-02-28T16:22:02.877Z,6.89
2023-02-28T16:24:32.326Z,6.59
2023-02-28T16:27:01.592Z,6.27
2023-02-28T16:29:31.167Z,6.04
2023-02-28T16:31:58.622Z,5.93
2023-02-28T16:34:26.036Z,5.81
2023-02-28T16:36:54.155Z,5.35
2023-02-28T16:39:22.277Z,4.71
2023-02-28T16:41:50.646Z,4.57
2023-02-28T16:44:30.426Z,4.33
2023-02-28T16:46:58.176Z,4.03
2023-02-28T16:49:26.797Z,4.16
2023-02-28T16:51:54.722Z,4.02
2023-02-28T16:54:22.628Z,3.61
2023-02-28T16:56:51.052Z,3.40
2023-02-28T16:59:24.798Z,3.26
2023-02-28T17:01:53.667Z,3.25
2023-02-28T17:04:21.700Z,3.14
2023-02-28T17:06:49.743Z,2.88
2023-02-28T17:09:28.280Z,2.56
2023-02-28T17:12:05.812Z,2.27
2023-02-28T17:14:33.204Z,1.93
2023-02-28T17:17:01.196Z,1.58
2023-02-28T17:19:29.749Z,1.78
2023-02-28T17:21:58.778Z,1.64
2023-02-28T17:24:31.110Z,1.94
2023-02-28T17:27:05.925Z,1.93
2023-02-28T17:29:34.339Z,1.00
2023-02-28T17:32:12.242Z,0.91
2023-02-28T17:34:48.601Z,0.93
2023-02-28T17:37:17.393Z,0.70
2023-02-28T17:39:45.164Z,1.02
2023-02-28T17:42:13.572Z,1.12
2023-02-28T17:44:43.284Z,0.99
2023-02-28T17:47:14.576Z,0.58
2023-02-28T17:49:43.276Z,0.31
2023-02-28T17:52:11.330Z,0.12
2023-02-28T17:54:41.840Z,0.48
2023-02-28T17:57:16.551Z,0.46
2023-02-28T17:59:44.885Z,0.30
2023-02-28T18:02:14.542Z,0.26
2023-02-28T18:04:42.601Z,0.18
2023-02-28T18:07:12.949Z,0.02
2023-02-28T18:09:41.112Z,0.45
2023-02-28T18:12:10.211Z,0.44
2023-02-28T18:14:39.432Z,0.30
2023-02-28T18:17:07.855Z,0.22
2023-02-28T18:19:35.943Z,0.26
2023-02-28T18:22:04.083Z,0.14
2023-02-28T18:24:32.211Z,0.11
2023-02-28T18:27:01.399Z,0.12
2023-02-28T18:29:39.610Z,-0.03
2023-02-28T18:32:09.226Z,0.05
2023-02-28T18:34:36.867Z,0.01
2023-02-28T18:37:05.260Z,0.03
2023-02-28T18:39:34.233Z,0.02
2023-02-28T18:42:02.913Z,0.01
2023-02-28T18:44:30.548Z,0.08
2023-02-28T18:46:58.430Z,-0.01
2023-02-28T18:49:27.679Z,-0.02
2023-02-28T18:51:56.061Z,-0.08
2023-02-28T18:54:31.871Z,-0.11
2023-02-28T18:57:01.231Z,-0.21
2023-02-28T18:59:29.083Z,-0.25
2023-02-28T19:01:59.354Z,-0.27
2023-02-28T19:04:27.795Z,-0.28
2023-02-28T19:06:55.565Z,-0.43
2023-02-28T19:09:25.021Z,-0.42
2023-02-28T19:11:56.190Z,-0.46
2023-02-28T19:14:24.188Z,-0.45
2023-02-28T19:16:52.569Z,-0.67
2023-02-28T19:19:20.738Z,-0.67
2023-02-28T19:21:49.278Z,-0.57
2023-02-28T19:24:20.409Z,-0.53
2023-02-28T19:26:48.726Z,-0.68
2023-02-28T19:29:19.727Z,-0.69
2023-02-28T19:31:48.698Z,-0.67
2023-02-28T19:34:17.513Z,-0.75
2023-02-28T19:36:45.766Z,-0.91
2023-02-28T19:39:15.524Z,-1.06
2023-02-28T19:41:51.639Z,-1.12
2023-02-28T19:44:19.544Z,-1.14
2023-02-28T19:46:47.427Z,-1.14
2023-02-28T19:49:15.498Z,-1.18
2023-02-28T19:51:45.386Z,-1.31
2023-02-28T19:54:14.485Z,-1.43
2023-02-28T19:56:44.013Z,-1.53
2023-02-28T19:59:21.151Z,-1.63
2023-02-28T20:01:50.574Z,-1.98
2023-02-28T20:04:19.143Z,-1.61
2023-02-28T20:06:49.779Z,-1.88
2023-02-28T20:09:18.284Z,-2.15
2023-02-28T20:11:47.378Z,-2.37
2023-02-28T20:14:15.423Z,-2.45
2023-02-28T20:16:43.352Z,-2.00
2023-02-28T20:19:11.743Z,-1.99
2023-02-28T20:21:42.612Z,-1.82
2023-02-28T20:24:14.872Z,-1.83
2023-02-28T20:26:42.891Z,-1.88
2023-02-28T20:29:11.231Z,-2.03
2023-02-28T20:31:41.785Z,-1.98
2023-02-28T20:34:10.140Z,-2.02
2023-02-28T20:36:38.714Z,-2.06
2023-02-28T20:39:06.995Z,-2.00
2023-02-28T20:41:35.497Z,-1.91
2023-02-28T20:44:04.754Z,-2.08
2023-02-28T20:46:35.300Z,-2.08
2023-02-28T20:49:05.084Z,-2.12
2023-02-28T20:51:33.824Z,-2.08
2023-02-28T20:54:03.037Z,-2.24
2023-02-28T20:56:32.252Z,-2.33
2023-02-28T20:59:01.185Z,-2.17
2023-02-28T21:01:31.196Z,-2.25
2023-02-28T21:04:02.160Z,-2.14
2023-02-28T21:06:37.001Z,-2.28
2023-02-28T21:09:15.863Z,-2.43
2023-02-28T21:11:44.509Z,-2.25
2023-02-28T21:14:17.823Z,-2.38
2023-02-28T21:16:45.447Z,-2.47
2023-02-28T21:19:13.633Z,-2.86
2023-02-28T21:21:51.552Z,-2.76
2023-02-28T21:24:20.459Z,-2.67
2023-02-28T21:26:48.787Z,-2.72
2023-02-28T21:29:17.068Z,-2.65
2023-02-28T21:31:45.636Z,-2.47
2023-02-28T21:34:13.949Z,-2.64
2023-02-28T21:36:47.658Z,-2.55
2023-02-28T21:39:23.674Z,-2.65
2023-02-28T21:41:51.025Z,-2.88
2023-02-28T21:44:19.051Z,-2.91
2023-02-28T21:46:48.287Z,-2.99
2023-02-28T21:49:16.517Z,-2.82
2023-02-28T21:51:44.930Z,-2.75
2023-02-28T21:54:24.996Z,-2.85
2023-02-28T21:56:52.756Z,-2.68
2023-02-28T21:59:20.591Z,-2.73
2023-02-28T22:01:51.187Z,-2.64
2023-02-28T22:04:22.776Z,-2.61
2023-02-28T22:06:57.636Z,-2.78
2023-02-28T22:09:26.243Z,-2.97
2023-02-28T22:11:53.766Z,-3.14
2023-02-28T22:14:22.655Z,-3.11
2023-02-28T22:16:53.782Z,-3.09
2023-02-28T22:19:23.694Z,-3.13
2023-02-28T22:21:51.867Z,-3.22
2023-02-28T22:24:21.031Z,-3.27
2023-02-28T22:26:50.308Z,-3.11
2023-02-28T22:29:17.878Z,-3.25
2023-02-28T22:31:51.369Z,-3.11
2023-02-28T22:34:20.149Z,-3.05
2023-02-28T22:36:47.786Z,-3.13
2023-02-28T22:39:15.304Z,-3.32
2023-02-28T22:41:43.923Z,-3.36
2023-02-28T22:44:11.635Z,-3.46
2023-02-28T22:46:39.341Z,-3.56
2023-02-28T22:49:08.573Z,-3.55
2023-02-28T22:51:38.309Z,-3.66
2023-02-28T22:54:05.672Z,-3.63
2023-02-28T22:56:33.607Z,-3.59
2023-02-28T22:59:03.830Z,-3.46
2023-02-28T23:01:33.030Z,-3.37
2023-02-28T23:04:19.991Z,-3.49
2023-02-28T23:06:47.557Z,-3.55
2023-02-28T23:09:19.027Z,-3.63
2023-02-28T23:11:49.897Z,-3.69
2023-02-28T23:14:19.902Z,-3.71
2023-02-28T23:16:54.507Z,-3.64
2023-02-28T23:19:26.673Z,-3.48
2023-02-28T23:21:54.462Z,-3.54
2023-02-28T23:24:34.026Z,-3.68
2023-02-28T23:27:04.774Z,-3.84
2023-02-28T23:29:33.815Z,-3.78
2023-02-28T23:32:01.610Z,-3.61
2023-02-28T23:34:30.786Z,-3.48
2023-02-28T23:37:07.592Z,-3.57
2023-02-28T23:39:35.143Z,-3.48
2023-02-28T23:42:03.697Z,-3.69
2023-02-28T23:44:32.052Z,-3.91
2023-02-28T23:46:59.533Z,-4.06
2023-02-28T23:49:27.302Z,-4.14
2023-02-28T23:51:54.844Z,-4.17
2023-02-28T23:54:22.667Z,-4.23
2023-02-28T23:56:50.875Z,-4.31
2023-02-28T23:59:24.089Z,-4.25
